Time;durP1;ratioP1;P1;durP2;ratioP2;P2;SDS_P1;SDS_P2;PMS_P1;PMS_P2;Temp;Humidity;BMP_temperature;BMP_pressure;BME280_temperature;BME280_humidity;BME280_pressure;Samples;Min_cycle;Max_cycle;Signal;HPM_P1;HPM_P2
2022/12/13 00:01:46;;;;;;;47.17;19.07;;;;;;;4.53;48.15;101359.25;5111555;28;20285;-67
2022/12/13 00:04:12;;;;;;;42.73;18.97;;;;;;;4.70;47.60;101348.41;5111562;28;20299;-67
2022/12/13 00:06:38;;;;;;;53.67;20.23;;;;;;;4.80;46.58;101345.16;5130693;28;20793;-67
2022/12/13 00:09:05;;;;;;;40.87;17.73;;;;;;;5.05;47.29;101348.25;5111569;27;20038;-67
2022/12/13 00:11:31;;;;;;;46.03;18.37;;;;;;;5.08;46.75;101338.84;5113762;27;20031;-67
2022/12/13 00:13:57;;;;;;;43.30;18.97;;;;;;;5.04;46.85;101343.91;5115411;27;20299;-67
2022/12/13 00:16:25;;;;;;;50.23;19.30;;;;;;;4.99;47.01;101345.56;5131581;27;20124;-67
2022/12/13 00:18:56;;;;;;;45.37;19.40;;;;;;;4.84;47.13;101336.59;5115546;27;20291;-67
2022/12/13 00:21:27;;;;;;;49.30;21.10;;;;;;;5.32;46.05;101334.13;5115398;27;20591;-67
2022/12/13 00:23:53;;;;;;;47.33;20.30;;;;;;;4.89;46.76;101336.69;5133329;27;20292;-67
2022/12/13 00:26:21;;;;;;;45.77;18.50;;;;;;;5.03;47.09;101337.88;5114135;27;20383;-67
2022/12/13 00:28:50;;;;;;;44.73;19.07;;;;;;;5.06;45.90;101337.94;5116210;27;20019;-67
2022/12/13 00:31:19;;;;;;;43.57;19.07;;;;;;;4.99;46.67;101335.19;5113861;27;20300;-67
2022/12/13 00:33:44;;;;;;;44.27;20.43;;;;;;;5.15;46.65;101337.25;5114582;27;20341;-67
2022/12/13 00:36:10;;;;;;;44.57;18.90;;;;;;;4.90;46.72;101331.56;5115403;27;20711;-67
2022/12/13 00:38:36;;;;;;;47.67;20.20;;;;;;;4.95;46.86;101335.97;5132112;27;20502;-67
2022/12/13 00:41:16;;;;;;;44.90;19.93;;;;;;;4.82;46.60;101333.13;5114955;27;20478;-67
2022/12/13 00:43:42;;;;;;;45.67;19.00;;;;;;;5.14;46.06;101335.50;5113857;27;20296;-67
2022/12/13 00:46:14;;;;;;;47.80;19.30;;;;;;;5.12;46.56;101326.81;5114489;27;20392;-67
2022/12/13 00:48:39;;;;;;;57.40;21.83;;;;;;;4.82;47.08;101319.28;5133764;27;20292;-67
2022/12/13 00:51:07;;;;;;;45.57;20.03;;;;;;;5.21;45.94;101318.38;5113733;27;20284;-67
2022/12/13 00:53:32;;;;;;;48.77;19.03;;;;;;;5.06;45.83;101322.38;5114194;27;20080;-67
2022/12/13 00:55:58;;;;;;;46.50;19.30;;;;;;;4.93;46.86;101315.19;5115831;27;20277;-67
2022/12/13 00:58:23;;;;;;;44.57;19.67;;;;;;;4.98;46.20;101315.31;5133081;27;20027;-67
2022/12/13 01:00:48;;;;;;;49.13;19.90;;;;;;;4.89;46.52;101309.09;5132402;27;20039;-67
2022/12/13 01:03:24;;;;;;;45.47;19.37;;;;;;;4.70;46.90;101313.00;5112689;27;20055;-67
2022/12/13 01:05:50;;;;;;;46.93;19.40;;;;;;;5.17;45.65;101308.78;5113915;27;20360;-67
2022/12/13 01:08:16;;;;;;;48.03;20.43;;;;;;;5.22;45.47;101318.38;5114644;27;20285;-67
2022/12/13 01:10:43;;;;;;;42.93;18.50;;;;;;;5.15;45.60;101308.75;5133812;27;20341;-67
2022/12/13 01:13:09;;;;;;;44.37;18.93;;;;;;;5.29;45.03;101308.13;5113572;27;20023;-67
2022/12/13 01:15:34;;;;;;;44.97;18.73;;;;;;;5.17;45.48;101299.28;5131442;27;20388;-67
2022/12/13 01:18:00;;;;;;;49.60;21.03;;;;;;;4.67;46.56;101306.88;5112412;27;20022;-67
2022/12/13 01:20:25;;;;;;;42.57;17.93;;;;;;;5.10;45.70;101311.22;5114516;27;20027;-67
2022/12/13 01:22:50;;;;;;;42.00;18.37;;;;;;;4.95;46.02;101308.34;5114334;27;20428;-67
2022/12/13 01:25:16;;;;;;;41.87;17.90;;;;;;;4.51;46.51;101306.53;5115261;27;20031;-67
2022/12/13 01:27:41;;;;;;;41.90;18.53;;;;;;;4.74;46.30;101304.44;5132660;27;20097;-67
2022/12/13 01:30:07;;;;;;;43.47;18.97;;;;;;;4.85;45.70;101309.88;5114281;27;20031;-67
2022/12/13 01:32:32;;;;;;;52.70;20.67;;;;;;;4.80;46.40;101303.69;5109511;27;20033;-67
2022/12/13 01:34:57;;;;;;;47.80;18.57;;;;;;;4.67;46.37;101312.03;5111907;27;20414;-67
2022/12/13 01:37:23;;;;;;;41.90;17.70;;;;;;;4.89;46.59;101314.28;5113610;27;20027;-67
2022/12/13 01:39:48;;;;;;;44.03;18.80;;;;;;;4.93;46.60;101304.81;5133409;27;20070;-67
2022/12/13 01:42:13;;;;;;;44.30;19.70;;;;;;;4.74;46.54;101303.59;5112267;27;20027;-67
2022/12/13 01:44:54;;;;;;;45.13;18.37;;;;;;;4.93;46.52;101300.53;5114556;27;20091;-67
2022/12/13 01:47:35;;;;;;;41.27;18.70;;;;;;;4.83;46.80;101302.91;5114387;27;20031;-67
2022/12/13 01:50:05;;;;;;;38.93;18.10;;;;;;;4.74;46.15;101301.00;5131100;27;20295;-67
2022/12/13 01:52:33;;;;;;;42.53;17.87;;;;;;;4.96;46.10;101294.53;5112567;27;20780;-67
2022/12/13 01:55:00;;;;;;;46.50;19.67;;;;;;;4.68;46.75;101298.25;5112564;27;20300;-67
2022/12/13 01:57:26;;;;;;;39.00;18.60;;;;;;;4.08;47.68;101305.56;5113828;27;20284;-67
2022/12/13 01:59:53;;;;;;;43.67;18.03;;;;;;;4.57;46.96;101301.50;5114298;27;20279;-67
2022/12/13 02:02:19;;;;;;;50.37;19.00;;;;;;;4.85;46.02;101294.31;5112396;27;20055;-67
2022/12/13 02:04:53;;;;;;;43.53;18.50;;;;;;;4.82;47.13;101294.25;5111974;27;20720;-67
2022/12/13 02:07:23;;;;;;;45.07;18.17;;;;;;;4.71;46.44;101300.91;5113340;27;20057;-67
2022/12/13 02:09:50;;;;;;;40.07;18.10;;;;;;;5.01;45.89;101299.81;5111121;27;20293;-67
2022/12/13 02:12:15;;;;;;;46.20;19.23;;;;;;;5.03;45.88;101298.13;5132767;27;20365;-67
2022/12/13 02:14:41;;;;;;;44.40;18.30;;;;;;;4.93;45.17;101300.53;5112713;27;20407;-67
2022/12/13 02:17:28;;;;;;;45.13;18.40;;;;;;;4.65;46.48;101293.03;5131151;27;20027;-67
2022/12/13 02:20:10;;;;;;;40.23;17.27;;;;;;;4.65;47.03;101286.13;5112642;27;20546;-67
2022/12/13 02:22:55;;;;;;;45.97;19.50;;;;;;;4.65;46.35;101295.63;5113366;27;20292;-67
2022/12/13 02:25:49;;;;;;;43.67;17.30;;;;;;;4.91;46.17;101290.97;5111898;27;20295;-67
2022/12/13 02:28:35;;;;;;;43.73;18.30;;;;;;;4.59;46.33;101289.44;5111070;27;20337;-67
2022/12/13 02:31:16;;;;;;;45.10;19.20;;;;;;;4.78;46.79;101288.97;5092621;28;20709;-67
2022/12/13 02:33:57;;;;;;;51.73;18.93;;;;;;;4.73;47.13;101286.28;5113501;28;20346;-67
2022/12/13 02:36:43;;;;;;;42.13;17.67;;;;;;;4.36;46.80;101291.53;5113044;27;20296;-67
2022/12/13 02:39:23;;;;;;;41.80;18.20;;;;;;;4.73;47.43;101275.94;5112105;27;20288;-67
2022/12/13 02:41:58;;;;;;;42.97;18.37;;;;;;;4.88;46.45;101276.25;5131562;27;20378;-67
2022/12/13 02:44:28;;;;;;;41.07;17.77;;;;;;;5.19;45.97;101271.69;5129552;27;20292;-67
2022/12/13 02:46:56;;;;;;;42.67;18.13;;;;;;;5.24;45.32;101270.03;5112713;27;20300;-67
2022/12/13 02:49:24;;;;;;;53.10;20.13;;;;;;;4.97;46.17;101274.69;5113177;27;20315;-67
2022/12/13 02:51:51;;;;;;;42.47;18.07;;;;;;;4.77;46.15;101277.75;5109389;28;20360;-67
2022/12/13 02:54:17;;;;;;;45.50;18.33;;;;;;;4.67;46.46;101275.78;5113733;27;20675;-67
2022/12/13 02:57:01;;;;;;;41.97;17.73;;;;;;;4.87;47.22;101273.63;5111675;27;20296;-67
2022/12/13 02:59:33;;;;;;;42.17;18.93;;;;;;;4.61;47.00;101275.66;5111695;28;20023;-67
2022/12/13 03:02:15;;;;;;;41.70;17.70;;;;;;;4.60;47.40;101274.78;5130870;27;20328;-67
2022/12/13 03:08:05;;;;;;;47.10;19.23;;;;;;;4.79;47.11;101263.09;5130652;28;20073;-67
2022/12/13 03:10:47;;;;;;;37.67;17.73;;;;;;;4.92;46.04;101267.69;5112376;28;20300;-67
2022/12/13 03:13:35;;;;;;;44.27;18.80;;;;;;;4.77;46.55;101272.56;5112315;28;20375;-67
2022/12/13 03:16:07;;;;;;;44.70;19.43;;;;;;;4.72;46.79;101272.44;5129373;28;20762;-67
2022/12/13 03:18:34;;;;;;;46.37;20.20;;;;;;;4.57;46.40;101273.03;5130242;28;20738;-67
2022/12/13 03:21:02;;;;;;;41.70;18.43;;;;;;;5.04;45.75;101271.38;5112598;28;20273;-67
2022/12/13 03:23:28;;;;;;;43.70;17.37;;;;;;;4.68;45.98;101278.41;5131556;28;20279;-67
2022/12/13 03:25:57;;;;;;;41.77;19.20;;;;;;;4.90;45.71;101274.56;5112412;28;20289;-67
2022/12/13 03:28:23;;;;;;;47.13;17.77;;;;;;;4.56;46.41;101272.97;5129789;28;20522;-67
2022/12/13 03:30:48;;;;;;;41.63;17.87;;;;;;;4.48;47.44;101274.50;5109845;27;20310;-67
2022/12/13 03:33:14;;;;;;;38.60;17.43;;;;;;;4.81;46.48;101274.38;5106728;28;20030;-67
2022/12/13 03:35:41;;;;;;;42.40;17.17;;;;;;;4.64;45.92;101275.72;5130739;27;20066;-67
2022/12/13 03:38:06;;;;;;;47.57;18.57;;;;;;;4.64;46.29;101278.31;5130784;27;20087;-67
2022/12/13 03:40:33;;;;;;;38.80;18.03;;;;;;;4.80;46.30;101277.81;5111531;28;20281;-67
2022/12/13 03:43:01;;;;;;;51.67;18.90;;;;;;;4.64;46.80;101275.72;5112968;28;20041;-67
2022/12/13 03:45:27;;;;;;;42.53;18.27;;;;;;;4.80;45.70;101271.75;5112115;27;20288;-67
2022/12/13 03:47:52;;;;;;;40.07;17.70;;;;;;;4.64;46.07;101271.41;5114031;27;20341;-67
2022/12/13 03:50:18;;;;;;;46.33;18.10;;;;;;;4.96;45.42;101263.47;5134258;27;20486;-67
2022/12/13 03:52:43;;;;;;;40.27;17.53;;;;;;;4.57;46.46;101260.06;5135148;27;20508;-67
2022/12/13 03:55:09;;;;;;;41.87;17.70;;;;;;;4.53;46.04;101266.03;5116041;27;20018;-67
2022/12/13 03:57:35;;;;;;;45.07;17.97;;;;;;;4.46;47.49;101266.72;5115274;27;20038;-67
2022/12/13 04:00:00;;;;;;;44.90;17.83;;;;;;;4.44;47.00;101268.41;5133361;27;20652;-67
2022/12/13 04:02:25;;;;;;;36.60;17.33;;;;;;;4.39;47.47;101272.59;5131692;27;20047;-67
2022/12/13 04:04:51;;;;;;;41.93;18.70;;;;;;;4.38;46.91;101269.16;5116456;27;20465;-67
2022/12/13 04:07:16;;;;;;;47.70;17.93;;;;;;;4.65;46.32;101267.13;5115391;27;20092;-67
2022/12/13 04:09:42;;;;;;;46.40;17.70;;;;;;;4.25;47.30;101267.97;5115880;27;20031;-67
2022/12/13 04:14:51;;;;;;;41.83;17.10;;;;;;;4.73;45.77;101276.78;5133453;27;20049;-67
2022/12/13 04:17:16;;;;;;;44.43;17.43;;;;;;;4.50;46.59;101265.06;5114024;27;20288;-67
2022/12/13 04:19:42;;;;;;;44.07;17.80;;;;;;;4.71;45.69;101264.66;5132079;27;20107;-67
2022/12/13 04:22:07;;;;;;;47.10;17.90;;;;;;;4.19;47.81;101264.38;5115555;27;20023;-67
2022/12/13 04:24:32;;;;;;;40.20;17.57;;;;;;;4.46;46.98;101258.94;5114868;27;20117;-67
2022/12/13 04:26:59;;;;;;;41.93;16.97;;;;;;;4.59;46.11;101262.69;5116138;27;20076;-67
2022/12/13 04:29:25;;;;;;;43.10;17.40;;;;;;;3.92;47.36;101262.91;5113373;27;20033;-67
2022/12/13 04:31:50;;;;;;;40.17;17.07;;;;;;;4.64;45.62;101260.19;5114254;27;20288;-67
2022/12/13 04:34:15;;;;;;;62.53;18.43;;;;;;;4.76;45.51;101257.88;5115007;27;20379;-67
2022/12/13 04:36:41;;;;;;;39.63;16.90;;;;;;;4.70;45.85;101260.34;5114273;27;20031;-67
2022/12/13 04:39:06;;;;;;;38.00;16.87;;;;;;;3.95;46.63;101259.53;5116020;27;20113;-67
2022/12/13 04:41:36;;;;;;;43.23;17.87;;;;;;;3.81;47.21;101260.06;5115369;27;20054;-67
2022/12/13 04:44:03;;;;;;;39.50;17.83;;;;;;;4.15;47.38;101258.28;5114886;27;20095;-67
2022/12/13 04:46:29;;;;;;;41.93;17.83;;;;;;;4.21;47.20;101255.81;5111613;27;20295;-67
2022/12/13 04:48:54;;;;;;;41.50;16.83;;;;;;;4.27;47.03;101254.22;5115444;27;20355;-67
2022/12/13 04:51:19;;;;;;;38.73;17.40;;;;;;;3.60;47.88;101264.69;5114364;27;20390;-67
2022/12/13 04:53:45;;;;;;;42.10;18.03;;;;;;;3.67;48.26;101256.25;5115947;27;20027;-67
2022/12/13 04:56:10;;;;;;;44.17;18.37;;;;;;;3.79;48.17;101255.66;5112210;27;20050;-67
2022/12/13 04:58:36;;;;;;;43.00;17.47;;;;;;;4.08;47.47;101248.63;5114395;27;20041;-67
2022/12/13 05:01:04;;;;;;;43.00;18.93;;;;;;;3.84;47.24;101238.56;5133226;27;20119;-67
2022/12/13 05:03:30;;;;;;;46.10;18.70;;;;;;;4.32;46.17;101239.66;5115670;27;20157;-67
2022/12/13 05:05:55;;;;;;;44.80;17.93;;;;;;;4.36;46.26;101244.06;5113837;27;20379;-67
2022/12/13 05:08:21;;;;;;;44.10;19.10;;;;;;;4.38;46.65;101232.91;5113306;27;20285;-67
2022/12/13 05:10:46;;;;;;;43.90;18.90;;;;;;;3.76;48.36;101243.53;5113853;27;20035;-68
2022/12/13 05:13:11;;;;;;;48.07;19.80;;;;;;;4.01;46.63;101249.31;5114422;27;20482;-68
2022/12/13 05:15:37;;;;;;;47.37;17.73;;;;;;;4.36;46.09;101244.06;5113709;27;20037;-68
2022/12/13 05:18:05;;;;;;;48.17;19.63;;;;;;;3.97;47.17;101244.88;5131530;27;20060;-67
2022/12/13 05:20:30;;;;;;;44.30;17.27;;;;;;;4.12;46.88;101249.56;5112498;27;20041;-67
2022/12/13 05:22:57;;;;;;;42.40;18.53;;;;;;;4.35;46.82;101240.59;5115016;27;20272;-67
2022/12/13 05:25:23;;;;;;;46.67;18.13;;;;;;;4.43;46.95;101245.94;5114055;27;20034;-67
2022/12/13 05:27:49;;;;;;;50.50;18.37;;;;;;;4.27;46.44;101241.28;5112566;27;20303;-67
2022/12/13 05:30:14;;;;;;;51.20;19.23;;;;;;;4.40;46.35;101243.31;5132745;27;20296;-67
2022/12/13 05:32:40;;;;;;;51.50;18.83;;;;;;;4.27;46.39;101243.84;5112998;27;20059;-67
2022/12/13 05:35:06;;;;;;;51.20;21.17;;;;;;;4.30;46.25;101244.81;5112474;27;20023;-68
2022/12/13 05:37:31;;;;;;;41.83;18.27;;;;;;;4.20;46.99;101243.72;5132868;27;20508;-67
2022/12/13 05:39:56;;;;;;;43.67;18.37;;;;;;;4.38;46.04;101247.56;5111736;27;20293;-68
2022/12/13 05:42:22;;;;;;;45.17;17.33;;;;;;;4.20;46.41;101248.91;5114732;27;20027;-67
2022/12/13 05:44:47;;;;;;;40.90;17.23;;;;;;;4.06;46.22;101251.16;5132266;27;20031;-68
2022/12/13 05:47:12;;;;;;;41.87;18.40;;;;;;;4.28;46.36;101240.44;5130346;27;20034;-67
2022/12/13 05:49:38;;;;;;;46.50;18.53;;;;;;;4.41;46.08;101242.47;5114233;27;20044;-68
2022/12/13 05:52:04;;;;;;;51.63;19.70;;;;;;;4.22;46.92;101231.69;5132967;27;20031;-68
2022/12/13 05:54:29;;;;;;;41.23;18.17;;;;;;;4.35;46.30;101238.00;5131319;27;20042;-68
2022/12/13 05:56:55;;;;;;;45.30;19.97;;;;;;;4.04;46.53;101239.91;5113588;27;20474;-68
2022/12/13 05:59:20;;;;;;;45.93;19.20;;;;;;;3.77;48.44;101232.38;5110411;27;20060;-68
2022/12/13 06:01:45;;;;;;;54.53;20.27;;;;;;;3.93;46.81;101233.63;5131863;27;20055;-68
2022/12/13 06:04:11;;;;;;;47.37;18.77;;;;;;;4.03;46.74;101237.28;5113260;27;20096;-67
2022/12/13 06:06:37;;;;;;;43.43;19.57;;;;;;;4.09;47.09;101229.66;5113706;27;20466;-68
2022/12/13 06:09:02;;;;;;;46.57;19.07;;;;;;;3.89;46.66;101232.66;5110274;27;20505;-68
2022/12/13 06:11:28;;;;;;;48.47;19.60;;;;;;;3.58;48.19;101230.16;5112198;27;20483;-68
2022/12/13 06:13:53;;;;;;;47.50;18.53;;;;;;;4.16;46.56;101226.38;5130309;27;20452;-67
2022/12/13 06:16:18;;;;;;;40.77;17.07;;;;;;;3.89;46.85;101222.31;5113204;27;20041;-68
2022/12/13 06:18:44;;;;;;;44.10;18.50;;;;;;;3.82;47.09;101225.59;5130694;27;20447;-67
2022/12/13 06:21:09;;;;;;;39.93;17.87;;;;;;;4.08;46.58;101225.34;5112076;27;20379;-68
2022/12/13 06:23:35;;;;;;;44.80;19.43;;;;;;;4.23;46.46;101227.38;5111937;27;20019;-68
2022/12/13 06:26:05;;;;;;;46.80;18.17;;;;;;;4.06;46.68;101224.41;5132461;27;20027;-68
2022/12/13 06:28:31;;;;;;;48.43;20.37;;;;;;;4.23;45.70;101232.56;5131033;27;20031;-68
2022/12/13 06:31:03;;;;;;;45.50;19.67;;;;;;;3.75;47.10;101231.47;5110186;27;20300;-68
2022/12/13 06:33:29;;;;;;;42.33;18.08;;;;;;;3.65;47.60;101227.75;5111477;27;20792;-68
2022/12/13 06:35:56;;;;;;;40.33;17.27;;;;;;;3.79;47.68;101230.72;5110530;27;20026;-68
2022/12/13 06:38:23;;;;;;;47.50;18.40;;;;;;;4.12;46.76;101232.34;5112446;27;20019;-68
2022/12/13 06:40:48;;;;;;;44.90;17.67;;;;;;;3.68;47.14;101233.03;5112651;27;20296;-68
2022/12/13 06:43:14;;;;;;;45.83;18.07;;;;;;;3.95;46.63;101233.66;5112909;27;20734;-68
2022/12/13 06:45:39;;;;;;;42.30;18.03;;;;;;;3.69;47.80;101233.88;5113440;27;20386;-68
2022/12/13 06:48:05;;;;;;;50.43;20.37;;;;;;;3.82;47.16;101235.94;5112934;27;20292;-68
2022/12/13 06:50:31;;;;;;;47.77;20.13;;;;;;;3.35;47.42;101240.78;5110008;27;20019;-68
2022/12/13 06:52:56;;;;;;;45.23;19.30;;;;;;;4.15;46.53;101232.41;5112870;28;20031;-68
2022/12/13 06:55:22;;;;;;;51.40;20.40;;;;;;;3.87;47.42;101234.34;5112856;27;20027;-68
2022/12/13 06:57:47;;;;;;;44.67;20.53;;;;;;;3.92;47.19;101243.94;5111919;28;20027;-68
2022/12/13 07:00:13;;;;;;;50.90;19.87;;;;;;;3.99;46.13;101230.28;5113147;27;20027;-68
2022/12/13 07:02:39;;;;;;;44.73;20.70;;;;;;;3.95;46.69;101231.94;5111782;28;20410;-68
2022/12/13 07:05:05;;;;;;;49.47;20.23;;;;;;;4.09;46.67;101229.66;5112793;28;20042;-68
2022/12/13 07:07:30;;;;;;;48.20;21.70;;;;;;;3.87;46.14;101231.75;5111577;27;20027;-68
2022/12/13 07:09:56;;;;;;;50.53;19.60;;;;;;;4.03;46.01;101235.56;5112404;28;20279;-68
2022/12/13 07:12:22;;;;;;;53.23;21.27;;;;;;;3.88;46.76;101230.91;5129745;28;20112;-68
2022/12/13 07:14:49;;;;;;;55.33;21.13;;;;;;;3.29;47.87;101236.31;5129868;28;20080;-68
2022/12/13 07:17:15;;;;;;;47.93;19.60;;;;;;;3.70;47.21;101223.59;5113398;28;20268;-68
2022/12/13 07:19:40;;;;;;;43.70;19.67;;;;;;;3.87;46.68;101239.53;5108756;27;20295;-68
2022/12/13 07:22:06;;;;;;;43.37;19.53;;;;;;;3.70;47.14;101235.66;5111829;27;20024;-69
2022/12/13 07:24:33;;;;;;;47.80;20.03;;;;;;;3.86;46.63;101239.47;5116433;27;20019;-68
2022/12/13 07:26:58;;;;;;;57.73;22.17;;;;;;;3.50;47.46;101248.97;5116527;27;20095;-68
2022/12/13 07:29:23;;;;;;;46.03;19.43;;;;;;;3.73;46.72;101235.72;5116348;27;20766;-68
2022/12/13 07:31:49;;;;;;;51.17;21.67;;;;;;;3.29;47.07;101243.22;5116436;27;20050;-68
2022/12/13 07:34:14;;;;;;;54.03;22.37;;;;;;;3.77;46.35;101242.72;5114113;27;20027;-68
2022/12/13 07:36:39;;;;;;;55.87;21.53;;;;;;;3.61;47.52;101256.94;5117548;27;20407;-68
2022/12/13 07:39:05;;;;;;;53.60;21.97;;;;;;;3.84;46.73;101249.78;5116496;27;20371;-68
2022/12/13 07:41:31;;;;;;;55.00;22.00;;;;;;;3.27;47.25;101255.22;5128469;27;20062;-69
2022/12/13 07:43:57;;;;;;;46.00;21.30;;;;;;;3.25;47.22;101251.72;5128615;27;20027;-68
2022/12/13 07:46:23;;;;;;;53.37;21.27;;;;;;;3.40;46.51;101267.63;5133836;27;20284;-68
2022/12/13 07:48:49;;;;;;;52.93;22.83;;;;;;;3.61;46.97;101253.50;5115914;27;20378;-68
2022/12/13 07:51:14;;;;;;;47.37;20.07;;;;;;;3.25;48.37;101262.06;5135579;27;20722;-68
2022/12/13 07:53:39;;;;;;;57.20;24.70;;;;;;;3.52;47.28;101257.59;5111935;27;20026;-68
2022/12/13 07:56:10;;;;;;;51.07;20.97;;;;;;;3.22;47.47;101255.97;5116287;27;20410;-68
2022/12/13 07:58:36;;;;;;;53.40;20.50;;;;;;;3.79;46.43;101250.50;5117077;27;20401;-68
2022/12/13 08:01:05;;;;;;;46.90;19.47;;;;;;;3.18;48.01;101251.53;5116069;27;20365;-68
2022/12/13 08:03:34;;;;;;;46.90;19.70;;;;;;;3.87;46.58;101247.28;5114130;27;20317;-68
2022/12/13 08:06:20;;;;;;;53.53;21.10;;;;;;;3.72;46.55;101254.63;5114657;27;20303;-68
2022/12/13 08:08:49;;;;;;;44.70;19.20;;;;;;;3.33;47.94;101255.38;5113441;27;20292;-68
2022/12/13 08:11:15;;;;;;;44.50;19.50;;;;;;;3.54;47.20;101261.13;5113432;27;20289;-68
2022/12/13 08:13:41;;;;;;;48.70;19.33;;;;;;;3.55;47.08;101262.84;5114484;27;20289;-68
2022/12/13 08:16:09;;;;;;;54.33;20.17;;;;;;;3.36;47.68;101271.81;5132231;27;20407;-68
2022/12/13 08:18:34;;;;;;;48.00;19.17;;;;;;;3.78;46.85;101267.75;5134639;27;20027;-68
2022/12/13 08:21:01;;;;;;;44.87;18.53;;;;;;;4.00;46.78;101260.50;5134208;27;20299;-68
2022/12/13 08:23:30;;;;;;;47.77;19.83;;;;;;;3.76;46.89;101271.13;5112577;27;20023;-68
2022/12/13 08:25:56;;;;;;;56.70;19.67;;;;;;;3.62;47.21;101274.22;5114216;27;20302;-67
2022/12/13 08:28:23;;;;;;;55.90;21.13;;;;;;;4.06;46.56;101258.06;5116314;27;20771;-67
2022/12/13 08:30:49;;;;;;;41.37;19.27;;;;;;;3.55;47.27;101259.41;5133182;27;20284;-67
2022/12/13 08:33:14;;;;;;;49.33;19.27;;;;;;;3.79;47.56;101266.91;5116207;27;20302;-68
2022/12/13 08:35:40;;;;;;;53.33;20.23;;;;;;;4.14;46.12;101266.88;5132357;27;20066;-69
2022/12/13 08:38:05;;;;;;;49.43;20.63;;;;;;;3.84;46.58;101274.78;5127984;27;20782;-67
2022/12/13 08:40:31;;;;;;;53.23;20.60;;;;;;;3.86;46.85;101279.16;5109397;27;20031;-68
2022/12/13 08:42:57;;;;;;;60.27;21.20;;;;;;;4.22;46.17;101273.09;5128561;27;20042;-67
2022/12/13 08:45:23;;;;;;;51.43;19.87;;;;;;;4.30;46.45;101287.91;5108234;27;20305;-68
2022/12/13 08:47:49;;;;;;;50.20;20.23;;;;;;;4.47;46.34;101284.00;5099816;27;20122;-67
2022/12/13 08:50:14;;;;;;;56.87;21.97;;;;;;;4.77;45.76;101285.53;5101763;27;20397;-68
2022/12/13 08:52:41;;;;;;;50.20;21.23;;;;;;;4.47;45.97;101289.19;5108995;27;20035;-67
2022/12/13 08:55:11;;;;;;;48.07;19.97;;;;;;;4.67;45.53;101286.16;5131894;27;20058;-68
2022/12/13 08:57:38;;;;;;;48.17;20.03;;;;;;;4.39;46.41;101285.53;5111926;27;20768;-68
2022/12/13 09:00:10;;;;;;;46.33;19.77;;;;;;;4.57;46.96;101285.97;5115162;27;20376;-68
2022/12/13 09:02:35;;;;;;;55.40;21.58;;;;;;;4.48;46.25;101284.88;5133414;27;20291;-68
2022/12/13 09:05:02;;;;;;;58.20;22.20;;;;;;;4.76;46.22;101286.34;5109837;27;20121;-68
2022/12/13 09:07:27;;;;;;;51.07;20.93;;;;;;;4.77;45.72;101280.34;5113491;27;20031;-67
2022/12/13 09:09:52;;;;;;;49.83;21.53;;;;;;;5.09;45.95;101274.94;5128958;27;21426;-67
2022/12/13 09:12:18;;;;;;;44.27;21.17;;;;;;;5.41;45.15;101278.13;5114396;27;20035;-67
2022/12/13 09:14:45;;;;;;;50.93;22.47;;;;;;;4.33;46.49;101285.44;5096648;27;20030;-66
2022/12/13 09:17:10;;;;;;;51.80;22.53;;;;;;;4.95;46.64;101276.38;5124717;27;20034;-66
2022/12/13 09:19:38;;;;;;;52.47;23.80;;;;;;;4.81;45.88;101286.44;5112602;27;20779;-67
2022/12/13 09:22:04;;;;;;;47.43;21.77;;;;;;;5.32;45.51;101277.09;5112769;27;20130;-67
2022/12/13 09:24:29;;;;;;;52.13;20.83;;;;;;;5.22;45.95;101276.91;5094176;27;20372;-67
2022/12/13 09:26:55;;;;;;;50.30;22.60;;;;;;;5.01;46.52;101271.31;5112801;27;20107;-67
2022/12/13 09:29:20;;;;;;;54.50;23.57;;;;;;;5.15;45.82;101274.16;5119801;27;20011;-67
2022/12/13 09:31:45;;;;;;;52.87;21.70;;;;;;;5.49;45.50;101265.28;5096287;27;20031;-67
2022/12/13 09:34:11;;;;;;;53.30;21.70;;;;;;;5.22;45.95;101271.72;5108141;27;20022;-67
2022/12/13 09:36:37;;;;;;;50.17;24.30;;;;;;;5.20;45.54;101272.53;5107053;27;20023;-66
2022/12/13 09:39:03;;;;;;;59.73;23.70;;;;;;;5.74;45.08;101277.00;5110364;27;20402;-67
2022/12/13 09:41:28;;;;;;;51.73;22.23;;;;;;;6.03;44.77;101262.75;5132478;27;20051;-67
2022/12/13 09:44:20;;;;;;;53.37;23.17;;;;;;;6.06;44.56;101257.63;5113240;27;20355;-67
2022/12/13 09:46:48;;;;;;;52.13;23.43;;;;;;;5.50;45.22;101261.88;5116690;27;20571;-67
2022/12/13 09:49:27;;;;;;;50.57;22.20;;;;;;;5.80;45.52;101260.66;5111215;27;20376;-67
2022/12/13 09:51:56;;;;;;;53.67;22.50;;;;;;;5.61;45.97;101270.69;5114370;27;20671;-66
2022/12/13 09:54:23;;;;;;;52.57;21.90;;;;;;;5.56;45.75;101269.75;5112756;27;20261;-67
2022/12/13 09:56:50;;;;;;;56.63;23.90;;;;;;;6.16;45.25;101263.84;5113495;27;20285;-67
2022/12/13 09:59:17;;;;;;;51.53;22.27;;;;;;;5.80;45.56;101258.06;5111676;27;20305;-67
2022/12/13 10:01:44;;;;;;;54.33;23.07;;;;;;;5.34;46.96;101265.03;5110521;27;20753;-67
2022/12/13 10:04:16;;;;;;;53.20;22.77;;;;;;;5.70;46.60;101263.91;5109370;27;20284;-67
2022/12/13 10:06:41;;;;;;;58.22;22.00;;;;;;;5.65;46.35;101263.84;5113976;27;20268;-67
2022/12/13 10:09:12;;;;;;;50.60;22.17;;;;;;;6.48;45.17;101253.88;5110456;27;20455;-66
2022/12/13 10:11:46;;;;;;;47.90;21.90;;;;;;;6.41;44.58;101249.47;5126158;27;20027;-67
2022/12/13 10:14:20;;;;;;;53.40;23.43;;;;;;;6.15;45.94;101231.78;5125627;27;20664;-67
2022/12/13 10:16:50;;;;;;;52.57;21.97;;;;;;;7.02;44.68;101238.09;5131778;27;20809;-66
2022/12/13 10:19:38;;;;;;;53.23;23.50;;;;;;;6.40;45.24;101237.34;5109569;27;20303;-66
2022/12/13 10:22:07;;;;;;;54.53;24.90;;;;;;;6.69;45.22;101239.44;5129003;27;20288;-66
2022/12/13 10:24:52;;;;;;;59.87;24.37;;;;;;;7.37;44.45;101235.00;5113068;27;20027;-66
2022/12/13 10:27:27;;;;;;;59.90;25.60;;;;;;;7.64;43.53;101222.22;5109344;27;20463;-67
2022/12/13 10:30:00;;;;;;;51.83;22.80;;;;;;;7.45;44.50;101222.94;5111009;27;20033;-67
2022/12/13 10:32:25;;;;;;;48.40;23.63;;;;;;;8.29;42.55;101209.66;5111387;27;20032;-67
2022/12/13 10:34:54;;;;;;;51.33;23.43;;;;;;;8.15;42.72;101216.53;5107714;27;20368;-67
2022/12/13 10:37:22;;;;;;;44.40;23.70;;;;;;;8.83;43.44;101211.66;5126329;27;20034;-67
2022/12/13 10:39:47;;;;;;;45.70;21.07;;;;;;;8.35;43.25;101210.56;5106539;27;20050;-67
2022/12/13 10:42:18;;;;;;;49.83;24.00;;;;;;;7.53;43.64;101218.69;5110916;27;20019;-66
2022/12/13 10:44:43;;;;;;;43.13;19.63;;;;;;;7.78;44.42;101213.66;5115701;27;20106;-66
2022/12/13 10:47:09;;;;;;;46.03;22.30;;;;;;;7.25;44.25;101215.81;5111482;27;20542;-67
2022/12/13 10:49:55;;;;;;;47.20;22.30;;;;;;;6.42;46.61;101217.47;5109564;27;20038;-66
2022/12/13 10:52:29;;;;;;;51.73;22.53;;;;;;;7.45;44.42;101204.72;5112233;28;20477;-66
2022/12/13 10:54:56;;;;;;;50.33;23.27;;;;;;;8.27;43.02;101200.97;5113017;27;20466;-67
2022/12/13 10:57:22;;;;;;;47.27;22.30;;;;;;;7.75;43.03;101200.66;5110596;27;20394;-66
2022/12/13 10:59:48;;;;;;;47.97;22.87;;;;;;;7.42;44.60;101200.38;5129660;27;20031;-67
2022/12/13 11:02:32;;;;;;;52.20;24.17;;;;;;;8.18;43.49;101195.72;5108689;28;20039;-67
2022/12/13 11:04:59;;;;;;;49.73;22.57;;;;;;;8.30;44.14;101195.78;5109411;27;20019;-66
2022/12/13 11:07:30;;;;;;;57.37;24.43;;;;;;;8.49;43.22;101188.09;5106819;28;20109;-66
2022/12/13 11:09:57;;;;;;;51.03;24.83;;;;;;;7.61;43.33;101188.41;5109444;28;20019;-67
2022/12/13 11:12:25;;;;;;;53.67;24.27;;;;;;;8.54;43.03;101182.88;5109905;27;20082;-66
2022/12/13 11:14:59;;;;;;;56.93;23.87;;;;;;;8.27;42.86;101185.34;5111717;28;20057;-66
2022/12/13 11:17:27;;;;;;;49.27;23.33;;;;;;;7.55;43.80;101187.47;5111193;28;20023;-66
2022/12/13 11:19:57;;;;;;;52.83;23.03;;;;;;;8.37;43.38;101180.19;5129845;28;20379;-66
2022/12/13 11:22:27;;;;;;;50.07;23.63;;;;;;;8.50;42.64;101171.56;5112257;28;20026;-67
2022/12/13 11:24:58;;;;;;;51.03;23.87;;;;;;;8.82;42.95;101173.44;5111481;28;20385;-66
2022/12/13 11:27:27;;;;;;;52.83;23.87;;;;;;;8.58;42.07;101164.66;5129213;27;20031;-66